sensor_id;sensor_type;location;lat;lon;timestamp;P1;durP1;ratioP1;P2;durP2;ratioP2
26191;SDS011;13935;55.672;37.764;2023-03-31T00:00:15;14.13;;;9.18;;
26191;SDS011;13935;55.672;37.764;2023-03-31T00:01:19;14.05;;;9.00;;
26191;SDS011;13935;55.672;37.764;2023-03-31T00:02:21;12.73;;;8.60;;
26191;SDS011;13935;55.672;37.764;2023-03-31T00:03:23;14.70;;;9.18;;
26191;SDS011;13935;55.672;37.764;2023-03-31T00:04:25;14.25;;;8.90;;
26191;SDS011;13935;55.672;37.764;2023-03-31T00:05:28;13.82;;;9.15;;
26191;SDS011;13935;55.672;37.764;2023-03-31T00:06:34;13.85;;;9.25;;
26191;SDS011;13935;55.672;37.764;2023-03-31T00:07:38;15.55;;;9.38;;
26191;SDS011;13935;55.672;37.764;2023-03-31T00:08:40;15.43;;;8.80;;
26191;SDS011;13935;55.672;37.764;2023-03-31T00:09:42;13.18;;;8.68;;
26191;SDS011;13935;55.672;37.764;2023-03-31T00:10:49;13.43;;;9.18;;
26191;SDS011;13935;55.672;37.764;2023-03-31T00:11:51;13.10;;;8.48;;
26191;SDS011;13935;55.672;37.764;2023-03-31T00:12:54;14.65;;;9.20;;
26191;SDS011;13935;55.672;37.764;2023-03-31T00:13:56;16.10;;;9.52;;
26191;SDS011;13935;55.672;37.764;2023-03-31T00:15:01;13.70;;;8.73;;
26191;SDS011;13935;55.672;37.764;2023-03-31T00:16:05;17.30;;;9.77;;
26191;SDS011;13935;55.672;37.764;2023-03-31T00:17:10;13.93;;;8.73;;
26191;SDS011;13935;55.672;37.764;2023-03-31T00:18:12;15.07;;;9.38;;
26191;SDS011;13935;55.672;37.764;2023-03-31T00:19:14;14.23;;;9.05;;
26191;SDS011;13935;55.672;37.764;2023-03-31T00:20:20;15.25;;;9.50;;
26191;SDS011;13935;55.672;37.764;2023-03-31T00:21:23;15.38;;;9.00;;
26191;SDS011;13935;55.672;37.764;2023-03-31T00:22:26;14.65;;;9.00;;
26191;SDS011;13935;55.672;37.764;2023-03-31T00:23:28;14.55;;;9.02;;
26191;SDS011;13935;55.672;37.764;2023-03-31T00:24:31;15.75;;;8.95;;
26191;SDS011;13935;55.672;37.764;2023-03-31T00:25:33;14.40;;;8.95;;
26191;SDS011;13935;55.672;37.764;2023-03-31T00:26:36;13.95;;;9.52;;
26191;SDS011;13935;55.672;37.764;2023-03-31T00:27:41;13.63;;;9.02;;
26191;SDS011;13935;55.672;37.764;2023-03-31T00:28:44;15.05;;;9.75;;
26191;SDS011;13935;55.672;37.764;2023-03-31T00:29:46;13.50;;;8.90;;
26191;SDS011;13935;55.672;37.764;2023-03-31T00:30:58;14.88;;;9.00;;
26191;SDS011;13935;55.672;37.764;2023-03-31T00:32:00;14.30;;;8.10;;
26191;SDS011;13935;55.672;37.764;2023-03-31T00:33:03;13.88;;;8.85;;
26191;SDS011;13935;55.672;37.764;2023-03-31T00:34:06;12.93;;;8.30;;
26191;SDS011;13935;55.672;37.764;2023-03-31T00:35:10;12.10;;;7.63;;
26191;SDS011;13935;55.672;37.764;2023-03-31T00:36:13;13.90;;;7.88;;
26191;SDS011;13935;55.672;37.764;2023-03-31T00:37:22;11.70;;;7.72;;
26191;SDS011;13935;55.672;37.764;2023-03-31T00:38:25;11.80;;;7.68;;
26191;SDS011;13935;55.672;37.764;2023-03-31T00:39:29;14.07;;;7.63;;
26191;SDS011;13935;55.672;37.764;2023-03-31T00:40:36;11.45;;;7.13;;
26191;SDS011;13935;55.672;37.764;2023-03-31T00:41:45;10.00;;;6.50;;
26191;SDS011;13935;55.672;37.764;2023-03-31T00:42:48;11.52;;;7.22;;
26191;SDS011;13935;55.672;37.764;2023-03-31T00:46:21;11.55;;;7.20;;
26191;SDS011;13935;55.672;37.764;2023-03-31T00:47:32;12.30;;;7.22;;
26191;SDS011;13935;55.672;37.764;2023-03-31T00:48:35;11.82;;;7.03;;
26191;SDS011;13935;55.672;37.764;2023-03-31T00:50:47;11.23;;;7.32;;
26191;SDS011;13935;55.672;37.764;2023-03-31T00:51:58;11.82;;;6.82;;
26191;SDS011;13935;55.672;37.764;2023-03-31T00:53:07;10.00;;;6.68;;
26191;SDS011;13935;55.672;37.764;2023-03-31T00:54:13;13.25;;;7.70;;
26191;SDS011;13935;55.672;37.764;2023-03-31T00:55:18;14.95;;;7.15;;
26191;SDS011;13935;55.672;37.764;2023-03-31T00:56:25;9.77;;;6.55;;
26191;SDS011;13935;55.672;37.764;2023-03-31T00:57:32;10.95;;;7.20;;
26191;SDS011;13935;55.672;37.764;2023-03-31T00:58:40;10.25;;;6.88;;
26191;SDS011;13935;55.672;37.764;2023-03-31T00:59:52;11.02;;;6.35;;
26191;SDS011;13935;55.672;37.764;2023-03-31T01:01:00;11.60;;;6.43;;
26191;SDS011;13935;55.672;37.764;2023-03-31T01:02:05;11.13;;;7.03;;
26191;SDS011;13935;55.672;37.764;2023-03-31T01:03:08;10.85;;;7.50;;
26191;SDS011;13935;55.672;37.764;2023-03-31T01:04:10;11.52;;;7.22;;
26191;SDS011;13935;55.672;37.764;2023-03-31T01:05:18;12.07;;;7.53;;
26191;SDS011;13935;55.672;37.764;2023-03-31T01:06:23;9.98;;;6.50;;
26191;SDS011;13935;55.672;37.764;2023-03-31T01:07:34;10.63;;;7.30;;
26191;SDS011;13935;55.672;37.764;2023-03-31T01:08:43;13.55;;;7.47;;
26191;SDS011;13935;55.672;37.764;2023-03-31T01:09:45;10.07;;;7.10;;
26191;SDS011;13935;55.672;37.764;2023-03-31T01:10:52;11.70;;;7.32;;
26191;SDS011;13935;55.672;37.764;2023-03-31T01:11:56;11.48;;;7.30;;
26191;SDS011;13935;55.672;37.764;2023-03-31T01:12:58;10.18;;;6.40;;
26191;SDS011;13935;55.672;37.764;2023-03-31T01:14:03;10.48;;;7.20;;
26191;SDS011;13935;55.672;37.764;2023-03-31T01:15:06;10.73;;;7.05;;
26191;SDS011;13935;55.672;37.764;2023-03-31T01:16:08;13.73;;;7.78;;
26191;SDS011;13935;55.672;37.764;2023-03-31T01:17:10;12.07;;;7.32;;
26191;SDS011;13935;55.672;37.764;2023-03-31T01:18:20;13.05;;;7.38;;
26191;SDS011;13935;55.672;37.764;2023-03-31T01:19:30;14.55;;;7.57;;
26191;SDS011;13935;55.672;37.764;2023-03-31T01:24:46;10.52;;;6.78;;
26191;SDS011;13935;55.672;37.764;2023-03-31T01:27:56;10.32;;;6.45;;
26191;SDS011;13935;55.672;37.764;2023-03-31T01:33:39;10.88;;;6.53;;
26191;SDS011;13935;55.672;37.764;2023-03-31T01:43:16;12.40;;;7.13;;
26191;SDS011;13935;55.672;37.764;2023-03-31T01:47:34;10.50;;;6.72;;
26191;SDS011;13935;55.672;37.764;2023-03-31T01:48:45;11.02;;;7.22;;
26191;SDS011;13935;55.672;37.764;2023-03-31T01:50:02;11.48;;;6.97;;
26191;SDS011;13935;55.672;37.764;2023-03-31T01:51:13;11.95;;;7.35;;
26191;SDS011;13935;55.672;37.764;2023-03-31T01:52:21;9.60;;;7.07;;
26191;SDS011;13935;55.672;37.764;2023-03-31T01:54:54;10.20;;;6.88;;
26191;SDS011;13935;55.672;37.764;2023-03-31T01:56:38;10.35;;;7.00;;
26191;SDS011;13935;55.672;37.764;2023-03-31T01:57:38;11.52;;;6.60;;
26191;SDS011;13935;55.672;37.764;2023-03-31T01:58:53;11.93;;;7.07;;
26191;SDS011;13935;55.672;37.764;2023-03-31T02:00:02;12.13;;;6.95;;
26191;SDS011;13935;55.672;37.764;2023-03-31T02:01:27;11.80;;;7.28;;
26191;SDS011;13935;55.672;37.764;2023-03-31T02:02:43;11.63;;;7.40;;
26191;SDS011;13935;55.672;37.764;2023-03-31T02:04:00;10.90;;;7.20;;
26191;SDS011;13935;55.672;37.764;2023-03-31T02:05:09;12.25;;;7.32;;
26191;SDS011;13935;55.672;37.764;2023-03-31T02:06:18;12.60;;;6.80;;
26191;SDS011;13935;55.672;37.764;2023-03-31T02:07:26;10.68;;;7.30;;
26191;SDS011;13935;55.672;37.764;2023-03-31T02:08:35;10.70;;;7.10;;
26191;SDS011;13935;55.672;37.764;2023-03-31T02:09:43;12.25;;;6.88;;
26191;SDS011;13935;55.672;37.764;2023-03-31T02:10:49;11.90;;;7.43;;
26191;SDS011;13935;55.672;37.764;2023-03-31T02:11:53;10.05;;;7.07;;
26191;SDS011;13935;55.672;37.764;2023-03-31T02:12:58;10.20;;;6.72;;
26191;SDS011;13935;55.672;37.764;2023-03-31T02:14:02;11.05;;;7.13;;
26191;SDS011;13935;55.672;37.764;2023-03-31T02:15:10;11.82;;;7.70;;
26191;SDS011;13935;55.672;37.764;2023-03-31T02:16:16;15.13;;;7.55;;
26191;SDS011;13935;55.672;37.764;2023-03-31T02:17:25;12.20;;;7.93;;
26191;SDS011;13935;55.672;37.764;2023-03-31T02:18:33;11.63;;;7.43;;
26191;SDS011;13935;55.672;37.764;2023-03-31T02:19:39;10.93;;;7.00;;
26191;SDS011;13935;55.672;37.764;2023-03-31T02:20:46;13.43;;;7.50;;
26191;SDS011;13935;55.672;37.764;2023-03-31T02:21:51;12.63;;;7.30;;
26191;SDS011;13935;55.672;37.764;2023-03-31T02:22:57;11.50;;;7.10;;
26191;SDS011;13935;55.672;37.764;2023-03-31T02:24:01;11.35;;;7.30;;
26191;SDS011;13935;55.672;37.764;2023-03-31T02:25:10;14.20;;;7.40;;
26191;SDS011;13935;55.672;37.764;2023-03-31T02:26:20;10.55;;;7.47;;
26191;SDS011;13935;55.672;37.764;2023-03-31T02:27:30;11.45;;;7.35;;
26191;SDS011;13935;55.672;37.764;2023-03-31T02:28:41;11.57;;;7.82;;
26191;SDS011;13935;55.672;37.764;2023-03-31T02:29:44;10.18;;;7.18;;
26191;SDS011;13935;55.672;37.764;2023-03-31T02:32:21;11.65;;;7.65;;
26191;SDS011;13935;55.672;37.764;2023-03-31T02:33:36;12.60;;;8.13;;
26191;SDS011;13935;55.672;37.764;2023-03-31T02:34:39;11.90;;;8.02;;
26191;SDS011;13935;55.672;37.764;2023-03-31T02:35:41;12.23;;;7.80;;
26191;SDS011;13935;55.672;37.764;2023-03-31T02:36:44;11.40;;;7.85;;
26191;SDS011;13935;55.672;37.764;2023-03-31T02:37:49;15.15;;;8.60;;
26191;SDS011;13935;55.672;37.764;2023-03-31T02:38:56;12.43;;;8.15;;
26191;SDS011;13935;55.672;37.764;2023-03-31T02:40:07;10.65;;;7.38;;
26191;SDS011;13935;55.672;37.764;2023-03-31T02:41:13;13.40;;;8.15;;
26191;SDS011;13935;55.672;37.764;2023-03-31T02:42:15;13.43;;;7.95;;
26191;SDS011;13935;55.672;37.764;2023-03-31T02:43:19;10.68;;;6.88;;
26191;SDS011;13935;55.672;37.764;2023-03-31T02:44:22;10.88;;;7.72;;
26191;SDS011;13935;55.672;37.764;2023-03-31T02:46:52;12.85;;;8.40;;
26191;SDS011;13935;55.672;37.764;2023-03-31T02:47:55;13.88;;;8.35;;
26191;SDS011;13935;55.672;37.764;2023-03-31T02:48:58;11.63;;;7.93;;
26191;SDS011;13935;55.672;37.764;2023-03-31T02:50:05;12.85;;;8.25;;
26191;SDS011;13935;55.672;37.764;2023-03-31T02:55:29;17.80;;;8.95;;
26191;SDS011;13935;55.672;37.764;2023-03-31T03:05:40;13.52;;;7.68;;
26191;SDS011;13935;55.672;37.764;2023-03-31T03:08:29;11.57;;;7.63;;
26191;SDS011;13935;55.672;37.764;2023-03-31T03:12:24;13.30;;;8.00;;
26191;SDS011;13935;55.672;37.764;2023-03-31T03:14:43;11.55;;;7.43;;
26191;SDS011;13935;55.672;37.764;2023-03-31T03:15:55;12.40;;;7.22;;
26191;SDS011;13935;55.672;37.764;2023-03-31T03:17:05;14.45;;;7.65;;
26191;SDS011;13935;55.672;37.764;2023-03-31T03:18:12;13.35;;;7.43;;
26191;SDS011;13935;55.672;37.764;2023-03-31T03:19:18;11.07;;;7.43;;
26191;SDS011;13935;55.672;37.764;2023-03-31T03:20:22;14.55;;;7.85;;
26191;SDS011;13935;55.672;37.764;2023-03-31T03:21:25;11.43;;;7.63;;
26191;SDS011;13935;55.672;37.764;2023-03-31T03:22:28;10.88;;;6.75;;
26191;SDS011;13935;55.672;37.764;2023-03-31T03:23:31;11.60;;;7.43;;
26191;SDS011;13935;55.672;37.764;2023-03-31T03:24:33;11.10;;;7.22;;
26191;SDS011;13935;55.672;37.764;2023-03-31T03:25:35;10.40;;;6.97;;
26191;SDS011;13935;55.672;37.764;2023-03-31T03:26:39;10.32;;;7.10;;
26191;SDS011;13935;55.672;37.764;2023-03-31T03:27:41;10.07;;;7.03;;
26191;SDS011;13935;55.672;37.764;2023-03-31T03:28:43;11.82;;;7.25;;
26191;SDS011;13935;55.672;37.764;2023-03-31T03:29:46;10.13;;;6.95;;
26191;SDS011;13935;55.672;37.764;2023-03-31T03:30:48;11.20;;;7.07;;
26191;SDS011;13935;55.672;37.764;2023-03-31T03:31:51;10.40;;;6.80;;
26191;SDS011;13935;55.672;37.764;2023-03-31T03:32:54;14.32;;;7.03;;
26191;SDS011;13935;55.672;37.764;2023-03-31T03:33:57;10.15;;;6.38;;
26191;SDS011;13935;55.672;37.764;2023-03-31T03:35:02;12.70;;;6.75;;
26191;SDS011;13935;55.672;37.764;2023-03-31T03:36:06;11.73;;;6.65;;
26191;SDS011;13935;55.672;37.764;2023-03-31T03:37:09;11.07;;;6.80;;
26191;SDS011;13935;55.672;37.764;2023-03-31T03:38:12;9.75;;;6.28;;
26191;SDS011;13935;55.672;37.764;2023-03-31T03:39:13;11.25;;;6.47;;
26191;SDS011;13935;55.672;37.764;2023-03-31T03:40:18;14.63;;;6.53;;
26191;SDS011;13935;55.672;37.764;2023-03-31T03:41:20;10.05;;;6.60;;
26191;SDS011;13935;55.672;37.764;2023-03-31T03:42:22;11.68;;;6.03;;
26191;SDS011;13935;55.672;37.764;2023-03-31T03:43:24;11.82;;;6.20;;
26191;SDS011;13935;55.672;37.764;2023-03-31T03:44:27;13.13;;;6.55;;
26191;SDS011;13935;55.672;37.764;2023-03-31T03:45:28;15.82;;;6.38;;
26191;SDS011;13935;55.672;37.764;2023-03-31T03:46:31;11.45;;;6.28;;
26191;SDS011;13935;55.672;37.764;2023-03-31T03:47:33;8.90;;;5.72;;
26191;SDS011;13935;55.672;37.764;2023-03-31T03:48:37;9.77;;;6.28;;
26191;SDS011;13935;55.672;37.764;2023-03-31T03:49:39;12.77;;;6.13;;
26191;SDS011;13935;55.672;37.764;2023-03-31T03:50:41;10.55;;;6.03;;
26191;SDS011;13935;55.672;37.764;2023-03-31T03:51:43;10.60;;;6.20;;
26191;SDS011;13935;55.672;37.764;2023-03-31T03:52:45;11.38;;;6.50;;
26191;SDS011;13935;55.672;37.764;2023-03-31T03:53:47;9.80;;;5.90;;
26191;SDS011;13935;55.672;37.764;2023-03-31T03:54:49;11.10;;;6.60;;
26191;SDS011;13935;55.672;37.764;2023-03-31T03:55:51;9.48;;;6.47;;
26191;SDS011;13935;55.672;37.764;2023-03-31T03:56:53;12.05;;;7.15;;
26191;SDS011;13935;55.672;37.764;2023-03-31T03:57:55;10.57;;;6.63;;
26191;SDS011;13935;55.672;37.764;2023-03-31T03:58:57;13.52;;;7.15;;
26191;SDS011;13935;55.672;37.764;2023-03-31T03:59:59;10.77;;;7.18;;
26191;SDS011;13935;55.672;37.764;2023-03-31T04:01:01;10.95;;;6.50;;
26191;SDS011;13935;55.672;37.764;2023-03-31T04:02:02;8.80;;;6.00;;
26191;SDS011;13935;55.672;37.764;2023-03-31T04:03:04;9.73;;;6.32;;
26191;SDS011;13935;55.672;37.764;2023-03-31T04:04:06;10.38;;;6.82;;
26191;SDS011;13935;55.672;37.764;2023-03-31T04:05:08;11.73;;;6.65;;
26191;SDS011;13935;55.672;37.764;2023-03-31T04:06:11;11.85;;;6.97;;
26191;SDS011;13935;55.672;37.764;2023-03-31T04:07:13;11.40;;;7.20;;
26191;SDS011;13935;55.672;37.764;2023-03-31T04:08:17;13.07;;;8.00;;
26191;SDS011;13935;55.672;37.764;2023-03-31T04:09:19;12.05;;;7.47;;
26191;SDS011;13935;55.672;37.764;2023-03-31T04:10:21;12.57;;;7.38;;
26191;SDS011;13935;55.672;37.764;2023-03-31T04:11:23;11.68;;;6.88;;
26191;SDS011;13935;55.672;37.764;2023-03-31T04:12:25;14.45;;;7.03;;
26191;SDS011;13935;55.672;37.764;2023-03-31T04:13:27;11.88;;;6.88;;
26191;SDS011;13935;55.672;37.764;2023-03-31T04:14:29;12.40;;;6.93;;
26191;SDS011;13935;55.672;37.764;2023-03-31T04:15:32;13.55;;;6.97;;
26191;SDS011;13935;55.672;37.764;2023-03-31T04:16:34;11.93;;;7.15;;
26191;SDS011;13935;55.672;37.764;2023-03-31T04:17:36;11.20;;;7.25;;
26191;SDS011;13935;55.672;37.764;2023-03-31T04:18:40;12.75;;;7.03;;
26191;SDS011;13935;55.672;37.764;2023-03-31T04:19:43;10.98;;;7.20;;
26191;SDS011;13935;55.672;37.764;2023-03-31T04:20:45;13.23;;;7.30;;
26191;SDS011;13935;55.672;37.764;2023-03-31T04:21:55;12.15;;;6.50;;
26191;SDS011;13935;55.672;37.764;2023-03-31T04:23:03;14.95;;;7.32;;
26191;SDS011;13935;55.672;37.764;2023-03-31T04:24:11;12.93;;;6.68;;
26191;SDS011;13935;55.672;37.764;2023-03-31T04:25:16;12.40;;;7.63;;
26191;SDS011;13935;55.672;37.764;2023-03-31T04:26:20;13.55;;;7.40;;
26191;SDS011;13935;55.672;37.764;2023-03-31T04:27:27;13.75;;;7.72;;
26191;SDS011;13935;55.672;37.764;2023-03-31T04:28:29;13.48;;;7.30;;
26191;SDS011;13935;55.672;37.764;2023-03-31T04:29:36;11.30;;;7.25;;
26191;SDS011;13935;55.672;37.764;2023-03-31T04:30:38;11.63;;;7.43;;
26191;SDS011;13935;55.672;37.764;2023-03-31T04:31:42;14.40;;;7.30;;
26191;SDS011;13935;55.672;37.764;2023-03-31T04:32:44;11.57;;;7.30;;
26191;SDS011;13935;55.672;37.764;2023-03-31T04:33:47;11.80;;;7.55;;
26191;SDS011;13935;55.672;37.764;2023-03-31T04:34:51;15.20;;;7.47;;
26191;SDS011;13935;55.672;37.764;2023-03-31T04:36:05;12.85;;;7.03;;
26191;SDS011;13935;55.672;37.764;2023-03-31T04:37:21;13.93;;;7.00;;
26191;SDS011;13935;55.672;37.764;2023-03-31T04:38:28;12.57;;;6.70;;
26191;SDS011;13935;55.672;37.764;2023-03-31T04:39:36;11.68;;;6.25;;
26191;SDS011;13935;55.672;37.764;2023-03-31T04:40:38;10.48;;;5.57;;
26191;SDS011;13935;55.672;37.764;2023-03-31T04:41:42;9.88;;;6.00;;
26191;SDS011;13935;55.672;37.764;2023-03-31T04:42:44;9.75;;;5.57;;
26191;SDS011;13935;55.672;37.764;2023-03-31T04:43:46;12.63;;;6.15;;
26191;SDS011;13935;55.672;37.764;2023-03-31T04:44:48;9.13;;;5.72;;
26191;SDS011;13935;55.672;37.764;2023-03-31T04:45:51;11.45;;;5.95;;
26191;SDS011;13935;55.672;37.764;2023-03-31T04:46:55;13.55;;;6.32;;
26191;SDS011;13935;55.672;37.764;2023-03-31T04:48:01;11.07;;;5.90;;
26191;SDS011;13935;55.672;37.764;2023-03-31T04:49:03;12.60;;;6.03;;
26191;SDS011;13935;55.672;37.764;2023-03-31T04:50:06;10.65;;;5.95;;
26191;SDS011;13935;55.672;37.764;2023-03-31T04:51:12;11.50;;;5.97;;
26191;SDS011;13935;55.672;37.764;2023-03-31T04:52:16;12.65;;;6.13;;
26191;SDS011;13935;55.672;37.764;2023-03-31T04:53:18;10.05;;;5.38;;
26191;SDS011;13935;55.672;37.764;2023-03-31T04:54:20;10.50;;;6.32;;
26191;SDS011;13935;55.672;37.764;2023-03-31T04:55:27;10.23;;;5.95;;
26191;SDS011;13935;55.672;37.764;2023-03-31T04:56:33;10.98;;;6.13;;
26191;SDS011;13935;55.672;37.764;2023-03-31T04:57:36;10.60;;;5.70;;
26191;SDS011;13935;55.672;37.764;2023-03-31T04:58:43;10.25;;;5.57;;
26191;SDS011;13935;55.672;37.764;2023-03-31T04:59:47;11.43;;;5.90;;
26191;SDS011;13935;55.672;37.764;2023-03-31T05:00:51;10.10;;;6.40;;
26191;SDS011;13935;55.672;37.764;2023-03-31T05:01:54;10.90;;;6.68;;
26191;SDS011;13935;55.672;37.764;2023-03-31T05:02:56;13.88;;;6.38;;
26191;SDS011;13935;55.672;37.764;2023-03-31T05:04:03;10.32;;;6.63;;
26191;SDS011;13935;55.672;37.764;2023-03-31T05:05:06;10.52;;;6.50;;
26191;SDS011;13935;55.672;37.764;2023-03-31T05:06:15;20.15;;;6.97;;
26191;SDS011;13935;55.672;37.764;2023-03-31T05:07:19;9.85;;;6.00;;
26191;SDS011;13935;55.672;37.764;2023-03-31T05:08:23;11.60;;;5.70;;
26191;SDS011;13935;55.672;37.764;2023-03-31T05:09:28;11.30;;;6.32;;
26191;SDS011;13935;55.672;37.764;2023-03-31T05:10:30;11.60;;;6.25;;
26191;SDS011;13935;55.672;37.764;2023-03-31T05:11:35;11.10;;;6.70;;
26191;SDS011;13935;55.672;37.764;2023-03-31T05:12:39;17.58;;;6.97;;
26191;SDS011;13935;55.672;37.764;2023-03-31T05:13:41;13.63;;;7.07;;
26191;SDS011;13935;55.672;37.764;2023-03-31T05:14:47;13.27;;;6.80;;
26191;SDS011;13935;55.672;37.764;2023-03-31T05:15:49;11.25;;;7.03;;
26191;SDS011;13935;55.672;37.764;2023-03-31T05:16:54;11.52;;;6.95;;
26191;SDS011;13935;55.672;37.764;2023-03-31T05:17:59;14.77;;;7.75;;
26191;SDS011;13935;55.672;37.764;2023-03-31T05:19:04;10.57;;;6.68;;
26191;SDS011;13935;55.672;37.764;2023-03-31T05:20:11;12.02;;;6.93;;
26191;SDS011;13935;55.672;37.764;2023-03-31T05:21:25;13.02;;;7.35;;
26191;SDS011;13935;55.672;37.764;2023-03-31T05:22:50;11.82;;;6.75;;
26191;SDS011;13935;55.672;37.764;2023-03-31T05:23:52;12.10;;;7.18;;
26191;SDS011;13935;55.672;37.764;2023-03-31T05:24:54;13.25;;;7.47;;
26191;SDS011;13935;55.672;37.764;2023-03-31T05:25:56;15.85;;;7.68;;
26191;SDS011;13935;55.672;37.764;2023-03-31T05:27:00;15.43;;;7.55;;
26191;SDS011;13935;55.672;37.764;2023-03-31T05:28:05;11.77;;;7.20;;
26191;SDS011;13935;55.672;37.764;2023-03-31T05:29:08;18.30;;;8.07;;
26191;SDS011;13935;55.672;37.764;2023-03-31T05:30:11;18.58;;;7.25;;
26191;SDS011;13935;55.672;37.764;2023-03-31T05:31:14;12.52;;;7.65;;
26191;SDS011;13935;55.672;37.764;2023-03-31T05:32:16;13.05;;;7.30;;
26191;SDS011;13935;55.672;37.764;2023-03-31T05:33:18;12.95;;;7.55;;
26191;SDS011;13935;55.672;37.764;2023-03-31T05:34:20;14.90;;;7.78;;
26191;SDS011;13935;55.672;37.764;2023-03-31T05:35:22;11.15;;;7.10;;
26191;SDS011;13935;55.672;37.764;2023-03-31T05:36:26;16.67;;;8.00;;
26191;SDS011;13935;55.672;37.764;2023-03-31T05:37:27;13.10;;;7.90;;
26191;SDS011;13935;55.672;37.764;2023-03-31T05:38:29;14.07;;;7.68;;
26191;SDS011;13935;55.672;37.764;2023-03-31T05:39:32;15.00;;;7.68;;
26191;SDS011;13935;55.672;37.764;2023-03-31T05:40:34;16.08;;;7.47;;
26191;SDS011;13935;55.672;37.764;2023-03-31T05:41:36;13.10;;;7.38;;
26191;SDS011;13935;55.672;37.764;2023-03-31T05:42:39;16.13;;;7.72;;
26191;SDS011;13935;55.672;37.764;2023-03-31T05:43:42;19.98;;;8.27;;
26191;SDS011;13935;55.672;37.764;2023-03-31T05:44:45;16.67;;;8.25;;
26191;SDS011;13935;55.672;37.764;2023-03-31T05:45:47;15.88;;;7.85;;
26191;SDS011;13935;55.672;37.764;2023-03-31T05:46:49;14.05;;;7.35;;
26191;SDS011;13935;55.672;37.764;2023-03-31T05:47:51;17.15;;;8.65;;
26191;SDS011;13935;55.672;37.764;2023-03-31T05:48:53;15.88;;;7.88;;
26191;SDS011;13935;55.672;37.764;2023-03-31T05:49:57;14.90;;;8.25;;
26191;SDS011;13935;55.672;37.764;2023-03-31T05:50:59;20.83;;;8.20;;
26191;SDS011;13935;55.672;37.764;2023-03-31T05:52:02;15.13;;;7.93;;
26191;SDS011;13935;55.672;37.764;2023-03-31T05:53:04;18.00;;;8.02;;
26191;SDS011;13935;55.672;37.764;2023-03-31T05:54:06;14.98;;;7.95;;
26191;SDS011;13935;55.672;37.764;2023-03-31T05:55:08;15.05;;;7.80;;
26191;SDS011;13935;55.672;37.764;2023-03-31T05:56:11;18.08;;;7.38;;
26191;SDS011;13935;55.672;37.764;2023-03-31T05:57:14;18.05;;;8.30;;
26191;SDS011;13935;55.672;37.764;2023-03-31T05:58:16;13.15;;;7.30;;
26191;SDS011;13935;55.672;37.764;2023-03-31T05:59:18;13.00;;;7.95;;
26191;SDS011;13935;55.672;37.764;2023-03-31T06:00:20;12.52;;;7.55;;
26191;SDS011;13935;55.672;37.764;2023-03-31T06:01:24;16.05;;;7.85;;
26191;SDS011;13935;55.672;37.764;2023-03-31T06:02:27;14.45;;;7.93;;
26191;SDS011;13935;55.672;37.764;2023-03-31T06:03:29;14.40;;;8.02;;
26191;SDS011;13935;55.672;37.764;2023-03-31T06:04:31;22.00;;;7.90;;
26191;SDS011;13935;55.672;37.764;2023-03-31T06:05:36;11.85;;;8.23;;
26191;SDS011;13935;55.672;37.764;2023-03-31T06:06:38;15.27;;;8.80;;
26191;SDS011;13935;55.672;37.764;2023-03-31T06:07:40;22.25;;;8.80;;
26191;SDS011;13935;55.672;37.764;2023-03-31T06:08:43;12.48;;;7.93;;
26191;SDS011;13935;55.672;37.764;2023-03-31T06:09:46;13.13;;;8.05;;
26191;SDS011;13935;55.672;37.764;2023-03-31T06:10:48;17.55;;;8.23;;
26191;SDS011;13935;55.672;37.764;2023-03-31T06:11:51;13.88;;;7.88;;
26191;SDS011;13935;55.672;37.764;2023-03-31T06:12:53;14.23;;;8.50;;
26191;SDS011;13935;55.672;37.764;2023-03-31T06:13:55;11.00;;;7.50;;
26191;SDS011;13935;55.672;37.764;2023-03-31T06:14:57;14.60;;;8.02;;
26191;SDS011;13935;55.672;37.764;2023-03-31T06:15:59;11.10;;;7.05;;
26191;SDS011;13935;55.672;37.764;2023-03-31T06:17:04;21.92;;;8.02;;
26191;SDS011;13935;55.672;37.764;2023-03-31T06:18:06;11.43;;;7.57;;
26191;SDS011;13935;55.672;37.764;2023-03-31T06:19:11;14.23;;;7.53;;
26191;SDS011;13935;55.672;37.764;2023-03-31T06:20:12;17.52;;;8.48;;
26191;SDS011;13935;55.672;37.764;2023-03-31T06:21:28;15.30;;;7.57;;
26191;SDS011;13935;55.672;37.764;2023-03-31T06:22:30;14.98;;;8.55;;
26191;SDS011;13935;55.672;37.764;2023-03-31T06:23:33;14.02;;;8.63;;
26191;SDS011;13935;55.672;37.764;2023-03-31T06:24:35;13.85;;;8.07;;
26191;SDS011;13935;55.672;37.764;2023-03-31T06:25:37;16.67;;;8.68;;
26191;SDS011;13935;55.672;37.764;2023-03-31T06:26:51;12.95;;;7.45;;
26191;SDS011;13935;55.672;37.764;2023-03-31T06:27:57;13.30;;;7.72;;
26191;SDS011;13935;55.672;37.764;2023-03-31T06:28:58;15.48;;;7.20;;
26191;SDS011;13935;55.672;37.764;2023-03-31T06:30:00;12.90;;;7.70;;
26191;SDS011;13935;55.672;37.764;2023-03-31T06:31:03;13.00;;;7.80;;
26191;SDS011;13935;55.672;37.764;2023-03-31T06:32:08;13.77;;;6.80;;
26191;SDS011;13935;55.672;37.764;2023-03-31T06:33:12;13.27;;;7.25;;
26191;SDS011;13935;55.672;37.764;2023-03-31T06:34:16;13.23;;;6.93;;
26191;SDS011;13935;55.672;37.764;2023-03-31T06:35:26;11.82;;;7.22;;
26191;SDS011;13935;55.672;37.764;2023-03-31T06:36:29;12.02;;;7.40;;
26191;SDS011;13935;55.672;37.764;2023-03-31T06:38:13;10.80;;;6.78;;
26191;SDS011;13935;55.672;37.764;2023-03-31T06:39:16;12.40;;;7.80;;
26191;SDS011;13935;55.672;37.764;2023-03-31T06:40:19;17.38;;;7.90;;
26191;SDS011;13935;55.672;37.764;2023-03-31T06:41:23;13.88;;;7.75;;
26191;SDS011;13935;55.672;37.764;2023-03-31T06:42:28;14.13;;;7.80;;
26191;SDS011;13935;55.672;37.764;2023-03-31T06:43:33;14.00;;;7.55;;
26191;SDS011;13935;55.672;37.764;2023-03-31T06:44:36;14.60;;;7.20;;
26191;SDS011;13935;55.672;37.764;2023-03-31T06:45:39;19.30;;;8.48;;
26191;SDS011;13935;55.672;37.764;2023-03-31T06:46:42;15.60;;;8.55;;
26191;SDS011;13935;55.672;37.764;2023-03-31T06:47:44;14.02;;;8.00;;
26191;SDS011;13935;55.672;37.764;2023-03-31T06:48:47;12.88;;;7.63;;
26191;SDS011;13935;55.672;37.764;2023-03-31T06:49:50;17.33;;;8.30;;
26191;SDS011;13935;55.672;37.764;2023-03-31T06:50:53;14.95;;;8.32;;
26191;SDS011;13935;55.672;37.764;2023-03-31T06:51:57;16.50;;;8.38;;
26191;SDS011;13935;55.672;37.764;2023-03-31T06:53:02;15.73;;;8.45;;
26191;SDS011;13935;55.672;37.764;2023-03-31T06:54:10;12.23;;;8.45;;
26191;SDS011;13935;55.672;37.764;2023-03-31T06:55:14;13.18;;;8.40;;
26191;SDS011;13935;55.672;37.764;2023-03-31T06:56:18;15.90;;;8.27;;
26191;SDS011;13935;55.672;37.764;2023-03-31T06:57:20;17.23;;;8.32;;
26191;SDS011;13935;55.672;37.764;2023-03-31T06:58:22;13.52;;;8.20;;
26191;SDS011;13935;55.672;37.764;2023-03-31T06:59:25;14.07;;;8.75;;
26191;SDS011;13935;55.672;37.764;2023-03-31T07:00:27;16.13;;;8.32;;
26191;SDS011;13935;55.672;37.764;2023-03-31T07:01:29;17.52;;;8.90;;
26191;SDS011;13935;55.672;37.764;2023-03-31T07:02:32;14.80;;;8.63;;
26191;SDS011;13935;55.672;37.764;2023-03-31T07:03:34;17.65;;;8.88;;
26191;SDS011;13935;55.672;37.764;2023-03-31T07:04:36;15.00;;;8.75;;
26191;SDS011;13935;55.672;37.764;2023-03-31T07:05:40;21.67;;;12.20;;
26191;SDS011;13935;55.672;37.764;2023-03-31T07:06:43;16.20;;;9.00;;
26191;SDS011;13935;55.672;37.764;2023-03-31T07:07:45;14.50;;;8.98;;